createdAt,value
2022-10-26T00:00:14.264Z,93.67
2022-10-26T00:05:36.334Z,93.77
2022-10-26T00:10:58.160Z,93.65
2022-10-26T00:16:27.608Z,94.38
2022-10-26T00:21:49.326Z,93.64
2022-10-26T00:27:11.035Z,92.80
2022-10-26T00:32:33.906Z,92.62
2022-10-26T00:37:56.173Z,91.88
2022-10-26T00:43:26.871Z,92.56
2022-10-26T00:48:55.547Z,94.22
2022-10-26T00:54:19.287Z,93.20
2022-10-26T00:59:43.816Z,94.40
2022-10-26T01:05:06.747Z,93.00
2022-10-26T01:10:29.330Z,92.90
2022-10-26T01:15:56.735Z,93.26
2022-10-26T01:21:43.406Z,94.25
2022-10-26T01:27:23.803Z,94.21
2022-10-26T01:33:04.398Z,95.05
2022-10-26T01:38:41.982Z,94.99
2022-10-26T01:44:10.711Z,94.10
2022-10-26T01:49:38.096Z,96.28
2022-10-26T01:55:04.992Z,97.49
2022-10-26T02:00:26.742Z,100.00
2022-10-26T02:06:07.198Z,100.00
2022-10-26T02:11:46.613Z,100.00
2022-10-26T02:17:27.446Z,100.00
2022-10-26T02:22:51.853Z,100.00
2022-10-26T02:28:18.990Z,100.00
2022-10-26T02:33:45.589Z,100.00
2022-10-26T02:39:09.993Z,100.00
2022-10-26T02:44:38.747Z,100.00
2022-10-26T02:50:00.521Z,100.00
2022-10-26T02:55:33.787Z,100.00
2022-10-26T03:00:55.822Z,100.00
2022-10-26T03:06:24.117Z,100.00
2022-10-26T03:11:45.827Z,100.00
2022-10-26T03:17:07.840Z,100.00
2022-10-26T03:22:29.540Z,100.00
2022-10-26T03:28:02.054Z,100.00
2022-10-26T03:33:27.034Z,100.00
2022-10-26T03:38:49.522Z,100.00
2022-10-26T03:44:11.243Z,100.00
2022-10-26T03:49:32.950Z,100.00
2022-10-26T03:54:54.624Z,100.00
2022-10-26T04:00:17.890Z,100.00
2022-10-26T04:05:39.642Z,100.00
2022-10-26T04:11:03.954Z,100.00
2022-10-26T04:16:31.012Z,99.27
2022-10-26T04:21:55.069Z,98.68
2022-10-26T04:27:16.756Z,100.00
2022-10-26T04:32:38.435Z,99.70
2022-10-26T04:38:02.194Z,100.00
2022-10-26T04:43:23.903Z,100.00
2022-10-26T04:48:47.938Z,100.00
2022-10-26T04:54:09.650Z,100.00
2022-10-26T04:59:31.359Z,100.00
2022-10-26T05:04:53.123Z,100.00
2022-10-26T05:10:14.887Z,100.00
2022-10-26T05:15:36.578Z,100.00
2022-10-26T05:20:58.290Z,100.00
2022-10-26T05:26:20.138Z,100.00
2022-10-26T05:31:41.838Z,100.00
2022-10-26T05:37:03.590Z,100.00
2022-10-26T05:42:25.442Z,100.00
2022-10-26T05:47:47.366Z,100.00
2022-10-26T05:53:09.352Z,100.00
2022-10-26T05:58:31.376Z,99.75
2022-10-26T06:04:17.515Z,99.50
2022-10-26T06:09:40.759Z,98.37
2022-10-26T06:15:02.642Z,98.71
2022-10-26T06:20:30.523Z,100.00
2022-10-26T06:26:05.317Z,100.00
2022-10-26T06:31:27.146Z,100.00
2022-10-26T06:36:49.898Z,100.00
2022-10-26T06:42:12.172Z,100.00
2022-10-26T06:47:42.136Z,100.00
2022-10-26T06:53:33.406Z,100.00
2022-10-26T06:59:03.462Z,100.00
2022-10-26T07:04:27.940Z,100.00
2022-10-26T07:09:49.885Z,100.00
2022-10-26T07:15:12.049Z,100.00
2022-10-26T07:20:41.490Z,100.00
2022-10-26T07:26:03.356Z,100.00
2022-10-26T07:31:26.192Z,100.00
2022-10-26T07:36:47.894Z,100.00
2022-10-26T07:42:09.631Z,100.00
2022-10-26T07:47:31.367Z,100.00
2022-10-26T07:52:53.415Z,99.81
2022-10-26T07:58:15.336Z,97.40
2022-10-26T08:03:37.400Z,97.43
2022-10-26T08:08:59.155Z,96.29
2022-10-26T08:14:20.932Z,95.99
2022-10-26T08:19:42.608Z,94.10
2022-10-26T08:25:04.632Z,93.82
2022-10-26T08:30:26.334Z,92.02
2022-10-26T08:35:48.438Z,92.77
2022-10-26T08:41:10.562Z,92.48
2022-10-26T08:46:40.175Z,91.83
2022-10-26T08:52:02.865Z,94.04
2022-10-26T08:57:41.282Z,93.33
2022-10-26T09:03:13.033Z,93.19
2022-10-26T09:08:53.735Z,92.05
2022-10-26T09:14:29.156Z,91.06
2022-10-26T09:20:05.615Z,90.30
2022-10-26T09:25:34.782Z,89.61
2022-10-26T09:30:58.987Z,90.49
2022-10-26T09:36:22.484Z,89.86
2022-10-26T09:41:51.961Z,90.12
2022-10-26T09:47:32.783Z,89.79
2022-10-26T09:52:54.520Z,88.94
2022-10-26T09:58:21.921Z,88.69
2022-10-26T10:03:43.598Z,86.07
2022-10-26T10:09:12.665Z,85.15
2022-10-26T10:14:40.076Z,86.11
2022-10-26T10:20:12.895Z,86.25
2022-10-26T10:25:40.010Z,87.24
2022-10-26T10:31:05.790Z,87.13
2022-10-26T10:36:30.154Z,85.38
2022-10-26T10:41:52.004Z,84.80
2022-10-26T10:47:27.333Z,86.12
2022-10-26T10:52:49.546Z,84.50
2022-10-26T10:58:45.018Z,84.76
2022-10-26T11:09:41.829Z,85.32
2022-10-26T11:15:08.782Z,85.98
2022-10-26T11:20:32.946Z,84.26
2022-10-26T11:26:09.837Z,83.24
2022-10-26T11:31:42.257Z,83.28
2022-10-26T11:37:11.277Z,83.82
2022-10-26T11:42:40.899Z,84.47
2022-10-26T11:48:14.458Z,84.22
2022-10-26T11:53:41.086Z,83.32
2022-10-26T12:04:33.390Z,80.48
2022-10-26T12:09:56.095Z,79.05
2022-10-26T12:15:40.336Z,79.49
2022-10-26T12:21:14.916Z,78.65
2022-10-26T12:26:36.529Z,78.79
2022-10-26T12:31:58.845Z,79.54
2022-10-26T12:37:33.679Z,80.06
2022-10-26T12:42:58.451Z,80.00
2022-10-26T12:48:46.766Z,80.20
2022-10-26T12:54:39.984Z,77.18
2022-10-26T13:00:05.740Z,78.58
2022-10-26T13:05:44.010Z,78.07
2022-10-26T13:11:15.437Z,77.24
2022-10-26T13:16:37.258Z,76.87
2022-10-26T13:22:00.263Z,76.69
2022-10-26T13:27:24.873Z,76.26
2022-10-26T13:32:56.436Z,74.31
2022-10-26T13:38:23.084Z,76.37
2022-10-26T13:43:46.704Z,75.38
2022-10-26T13:49:22.123Z,75.46
2022-10-26T13:54:54.620Z,74.07
2022-10-26T14:00:21.861Z,73.84
2022-10-26T14:05:49.947Z,72.75
2022-10-26T14:11:15.397Z,71.64
2022-10-26T14:16:37.228Z,75.66
2022-10-26T14:21:59.489Z,73.63
2022-10-26T14:27:32.868Z,71.00
2022-10-26T14:32:55.231Z,70.41
2022-10-26T14:38:22.326Z,72.12
2022-10-26T14:43:45.786Z,73.38
2022-10-26T14:49:19.308Z,72.30
2022-10-26T14:54:41.116Z,71.83
2022-10-26T15:00:12.211Z,71.92
2022-10-26T15:05:35.933Z,71.44
2022-10-26T15:10:57.827Z,71.99
2022-10-26T15:16:22.303Z,71.08
2022-10-26T15:21:48.527Z,72.47
2022-10-26T15:27:19.654Z,75.28
2022-10-26T15:32:41.463Z,76.28
2022-10-26T15:38:03.137Z,77.38
2022-10-26T15:43:24.946Z,79.65
2022-10-26T15:48:54.677Z,81.41
2022-10-26T15:54:17.544Z,81.64
2022-10-26T15:59:39.604Z,82.23
2022-10-26T16:05:01.286Z,82.65
2022-10-26T16:10:24.994Z,82.93
2022-10-26T16:15:46.775Z,83.13
2022-10-26T16:21:13.044Z,83.16
2022-10-26T16:26:34.787Z,85.02
2022-10-26T16:31:56.586Z,86.30
2022-10-26T16:37:18.272Z,85.80
2022-10-26T16:42:44.556Z,86.69
2022-10-26T16:48:13.723Z,86.55
2022-10-26T16:53:35.715Z,86.75
2022-10-26T16:58:57.510Z,86.94
2022-10-26T17:04:19.342Z,87.06
2022-10-26T17:09:41.048Z,87.13
2022-10-26T17:15:02.854Z,88.13
2022-10-26T17:20:24.684Z,88.54
2022-10-26T17:25:46.383Z,88.26
2022-10-26T17:31:11.600Z,88.15
2022-10-26T17:36:33.360Z,87.87
2022-10-26T17:41:55.089Z,88.01
2022-10-26T17:47:16.787Z,88.44
2022-10-26T17:52:38.525Z,88.46
2022-10-26T17:58:00.327Z,88.87
2022-10-26T18:03:22.091Z,89.74
2022-10-26T18:08:44.745Z,89.05
2022-10-26T18:14:06.427Z,88.02
2022-10-26T18:19:28.127Z,88.16
2022-10-26T18:24:49.971Z,89.32
2022-10-26T18:30:12.264Z,89.87
2022-10-26T18:35:33.964Z,90.38
2022-10-26T18:40:55.766Z,90.91
2022-10-26T18:46:21.672Z,89.70
2022-10-26T18:51:43.497Z,90.98
2022-10-26T18:57:05.166Z,91.06
2022-10-26T19:02:26.876Z,91.66
2022-10-26T19:07:48.641Z,90.67
2022-10-26T19:13:10.295Z,90.68
2022-10-26T19:18:32.106Z,91.79
2022-10-26T19:23:56.355Z,91.75
2022-10-26T19:29:19.106Z,91.95
2022-10-26T19:34:40.788Z,92.60
2022-10-26T19:40:02.508Z,93.77
2022-10-26T19:45:24.235Z,93.51
2022-10-26T19:50:56.938Z,93.20
2022-10-26T19:56:20.497Z,94.07
2022-10-26T20:01:42.337Z,94.79
2022-10-26T20:07:04.110Z,94.91
2022-10-26T20:12:25.977Z,96.18
2022-10-26T20:17:47.706Z,96.67
2022-10-26T20:23:10.520Z,96.06
2022-10-26T20:28:32.364Z,96.88
2022-10-26T20:33:54.215Z,97.33
2022-10-26T20:39:16.876Z,97.25
2022-10-26T20:44:43.204Z,97.02
2022-10-26T20:50:05.507Z,96.58
2022-10-26T20:55:53.245Z,97.64
2022-10-26T21:01:38.021Z,97.65
2022-10-26T21:07:00.004Z,98.06
2022-10-26T21:12:22.468Z,100.00
2022-10-26T21:17:44.297Z,99.55
2022-10-26T21:23:05.977Z,100.00
2022-10-26T21:28:33.878Z,100.00
2022-10-26T21:33:55.636Z,99.91
2022-10-26T21:39:17.381Z,98.41
2022-10-26T21:44:41.218Z,98.98
2022-10-26T21:50:03.575Z,99.53
2022-10-26T21:55:25.362Z,99.16
2022-10-26T22:00:47.039Z,98.89
2022-10-26T22:06:10.185Z,100.00
2022-10-26T22:11:33.647Z,100.00
2022-10-26T22:16:55.419Z,100.00
2022-10-26T22:22:17.089Z,100.00
2022-10-26T22:27:38.764Z,100.00
2022-10-26T22:33:00.426Z,100.00
2022-10-26T22:38:22.139Z,100.00
2022-10-26T22:43:44.058Z,100.00
2022-10-26T22:49:05.752Z,100.00
2022-10-26T22:54:27.439Z,100.00
2022-10-26T22:59:49.111Z,100.00
2022-10-26T23:05:10.830Z,100.00
2022-10-26T23:10:32.486Z,100.00
2022-10-26T23:15:54.453Z,100.00
2022-10-26T23:21:16.945Z,100.00
2022-10-26T23:26:38.693Z,100.00
2022-10-26T23:32:00.350Z,100.00
2022-10-26T23:37:22.007Z,100.00
2022-10-26T23:42:43.675Z,100.00
2022-10-26T23:48:05.654Z,100.00
2022-10-26T23:53:27.382Z,100.00
2022-10-26T23:58:51.969Z,100.00
